This is the latest recevied weather packets stored in our database for station/object W3JBS-2. If no packets are shown the sender has not sent any weather packets the latest 10 day(s).
| Time | Temp. | Humidity | Pressure | Rain* | Wind** | Luminosity | Snow |
|---|---|---|---|---|---|---|---|
| 1777917120 | 20° C | 39% | 1011.7 hPa | 0 mm | - | - | - |
| 1777916220 | 20.56° C | 40% | 1011.8 hPa | 0 mm | - | - | - |
| 1777915321 | 20° C | 41% | 1011.9 hPa | 0 mm | - | - | - |
| 1777914420 | 20° C | 45% | 1012 hPa | 0 mm | - | - | - |
| 1777913520 | 20° C | 42% | 1012.2 hPa | 0 mm | - | - | - |
| 1777912620 | 19.44° C | 41% | 1012.4 hPa | 0 mm | - | - | - |
| 1777911720 | 19.44° C | 41% | 1012.7 hPa | 0 mm | - | - | - |
| 1777910820 | 19.44° C | 41% | 1012.8 hPa | 0 mm | - | - | - |
| 1777909920 | 18.89° C | 44% | 1013.2 hPa | 0 mm | - | - | - |
| 1777909020 | 18.33° C | 41% | 1013.4 hPa | 0 mm | - | - | - |
| 1777908120 | 18.33° C | 45% | 1013.3 hPa | 0 mm | - | 1782 W/m² | - |
| 1777907220 | 17.78° C | 50% | 1013.4 hPa | 0 mm | - | 1782 W/m² | - |
| 1777906320 | 17.78° C | 47% | 1013.5 hPa | 0 mm | - | 1782 W/m² | - |
| 1777905420 | 16.67° C | 51% | 1013.6 hPa | 0 mm | - | 1782 W/m² | - |
| 1777904520 | 16.67° C | 51% | 1013.6 hPa | 0 mm | - | 1781 W/m² | - |
| 1777903620 | 16.11° C | 58% | 1013.7 hPa | 0 mm | - | 1781 W/m² | - |
| 1777902720 | 15.56° C | 57% | 1013.7 hPa | 0 mm | - | 1779 W/m² | - |
| 1777901820 | 15° C | 59% | 1014 hPa | 0 mm | - | 1779 W/m² | - |
| 1777900920 | 14.44° C | 62% | 1014.2 hPa | 0 mm | - | 1779 W/m² | - |
| 1777900020 | 14.44° C | 62% | 1014.1 hPa | 0 mm | - | 1779 W/m² | - |
| 1777899120 | 13.33° C | 66% | 1014.2 hPa | 0 mm | - | 1779 W/m² | - |
| 1777898220 | 13.33° C | 67% | 1014.3 hPa | 0 mm | - | 1779 W/m² | - |
| 1777897319 | 12.78° C | 69% | 1014.2 hPa | 0 mm | - | 1779 W/m² | - |
| 1777896420 | 11.67° C | 71% | 1014.4 hPa | 0 mm | - | 1779 W/m² | - |
| 1777895520 | 11.11° C | 72% | 1014.4 hPa | 0 mm | - | 1779 W/m² | - |
* Rain latest hour (hover to see other rain measurements)
** Current wind speed in m/s (hover to see current wind gust speed)